createdAt,value
2019-06-27T00:03:21.707Z,23.7
2019-06-27T00:08:18.837Z,23.7
2019-06-27T00:13:16.036Z,23.7
2019-06-27T00:18:13.392Z,23.6
2019-06-27T00:23:10.210Z,23.6
2019-06-27T00:28:07.396Z,23
2019-06-27T00:38:01.910Z,23.5
2019-06-27T00:42:58.869Z,23.5
2019-06-27T00:47:55.453Z,23.4
2019-06-27T00:52:52.370Z,23.4
2019-06-27T00:57:49.470Z,23.3
2019-06-27T01:02:47.090Z,22.8
2019-06-27T01:07:44.304Z,23.2
2019-06-27T01:12:41.460Z,23.1
2019-06-27T01:17:38.611Z,23
2019-06-27T01:22:35.928Z,23.1
2019-06-27T01:27:32.950Z,22.5
2019-06-27T01:32:29.936Z,22.5
2019-06-27T01:42:24.056Z,22.5
2019-06-27T01:47:21.311Z,22.9
2019-06-27T01:52:19.002Z,22.4
2019-06-27T01:57:15.981Z,22.9
2019-06-27T02:02:13.678Z,22.2
2019-06-27T02:07:10.249Z,22.1
2019-06-27T02:12:07.523Z,22.3
2019-06-27T02:17:04.396Z,22.2
2019-06-27T02:22:01.731Z,22.2
2019-06-27T02:26:59.129Z,22.1
2019-06-27T02:31:56.340Z,22.1
2019-06-27T02:36:53.414Z,22.1
2019-06-27T02:41:50.352Z,21.9
2019-06-27T02:46:47.430Z,22.5
2019-06-27T02:51:44.897Z,22.5
2019-06-27T02:56:42.359Z,22
2019-06-27T03:01:39.577Z,21.9
2019-06-27T03:06:36.618Z,21.8
2019-06-27T03:11:33.686Z,22.2
2019-06-27T03:16:30.817Z,21.7
2019-06-27T03:21:27.780Z,22.1
2019-06-27T03:26:24.646Z,22.1
2019-06-27T03:31:22.242Z,21.5
2019-06-27T03:36:19.651Z,21.4
2019-06-27T03:41:16.620Z,21.9
2019-06-27T03:46:13.677Z,22
2019-06-27T03:51:10.854Z,21.9
2019-06-27T03:56:08.458Z,21.4
2019-06-27T04:01:05.485Z,21.7
2019-06-27T04:06:02.962Z,21.9
2019-06-27T04:11:00.578Z,21.9
2019-06-27T04:15:57.592Z,21.4
2019-06-27T04:20:55.146Z,21.4
2019-06-27T04:25:51.946Z,21.2
2019-06-27T04:30:49.637Z,21.9
2019-06-27T04:35:46.899Z,21.4
2019-06-27T04:40:44.608Z,21
2019-06-27T04:45:41.779Z,21.4
2019-06-27T04:50:39.306Z,21.4
2019-06-27T04:55:36.693Z,21.5
2019-06-27T05:00:34.064Z,21.5
2019-06-27T05:05:30.931Z,21.5
2019-06-27T05:10:28.676Z,21.5
2019-06-27T05:15:26.363Z,22.1
2019-06-27T05:20:24.135Z,21.6
2019-06-27T05:25:21.132Z,21.6
2019-06-27T05:30:18.591Z,22.2
2019-06-27T05:35:15.943Z,22.2
2019-06-27T05:40:12.901Z,22.3
2019-06-27T05:45:10.335Z,21.6
2019-06-27T05:50:06.955Z,21.8
2019-06-27T05:55:04.626Z,21.8
2019-06-27T06:00:01.909Z,21.9
2019-06-27T06:04:58.806Z,21.7
2019-06-27T06:09:56.051Z,21.9
2019-06-27T06:14:53.599Z,22.4
2019-06-27T06:19:51.191Z,22.5
2019-06-27T06:24:48.364Z,22.1
2019-06-27T06:29:45.661Z,22.1
2019-06-27T06:34:42.555Z,22.2
2019-06-27T06:39:40.198Z,22.7
2019-06-27T06:44:37.338Z,22.3
2019-06-27T06:49:35.023Z,22.9
2019-06-27T06:54:32.712Z,22.9
2019-06-27T06:59:29.789Z,22.5
2019-06-27T07:04:27.247Z,23.1
2019-06-27T07:09:24.867Z,23.2
2019-06-27T07:14:22.008Z,22.6
2019-06-27T07:19:19.749Z,23.3
2019-06-27T07:24:17.325Z,23.2
2019-06-27T07:29:15.031Z,23.2
2019-06-27T07:34:12.482Z,23
2019-06-27T07:39:09.918Z,23.6
2019-06-27T07:44:06.925Z,23.6
2019-06-27T07:49:04.174Z,23.3
2019-06-27T07:54:01.599Z,23.3
2019-06-27T07:58:58.860Z,23.4
2019-06-27T08:03:56.135Z,23.4
2019-06-27T08:08:53.875Z,24
2019-06-27T08:13:51.416Z,24.1
2019-06-27T08:18:49.051Z,24.2
2019-06-27T08:23:46.372Z,24.3
2019-06-27T08:28:43.562Z,24.4
2019-06-27T08:33:41.182Z,24.5
2019-06-27T08:38:38.265Z,24.6
2019-06-27T08:43:35.444Z,24.7
2019-06-27T08:48:33.164Z,24.8
2019-06-27T08:53:29.907Z,24.9
2019-06-27T08:58:27.806Z,25
2019-06-27T09:03:25.266Z,25.1
2019-06-27T09:08:22.396Z,25.2
2019-06-27T09:13:20.093Z,25.3
2019-06-27T09:18:17.805Z,25.1
2019-06-27T09:23:14.999Z,25.5
2019-06-27T09:28:12.078Z,25.6
2019-06-27T09:33:09.369Z,25.8
2019-06-27T09:38:06.630Z,25.9
2019-06-27T09:43:03.943Z,26.1
2019-06-27T09:48:01.495Z,26.3
2019-06-27T09:52:58.711Z,26.4
2019-06-27T09:57:56.544Z,26.6
2019-06-27T10:02:53.104Z,26.8
2019-06-27T10:07:50.847Z,26.9
2019-06-27T10:12:48.136Z,27
2019-06-27T10:17:45.792Z,27.1
2019-06-27T10:22:42.890Z,27.2
2019-06-27T10:27:40.407Z,27.3
2019-06-27T10:32:37.597Z,27.3
2019-06-27T10:37:34.864Z,27.5
2019-06-27T10:42:32.329Z,27.5
2019-06-27T10:47:29.543Z,27.6
2019-06-27T10:52:27.119Z,27.2
2019-06-27T10:57:24.420Z,27.3
2019-06-27T11:02:21.568Z,28
2019-06-27T11:07:19.010Z,27.9
2019-06-27T11:12:16.080Z,28.2
2019-06-27T11:17:13.389Z,28.4
2019-06-27T11:22:11.663Z,28
2019-06-27T11:27:09.243Z,28.6
2019-06-27T11:32:06.656Z,24.2
2019-06-27T11:37:03.948Z,28.8
2019-06-27T11:42:01.693Z,29.1
2019-06-27T11:46:59.038Z,29.2
2019-06-27T11:51:56.546Z,29.4
2019-06-27T11:56:51.801Z,29.1
2019-06-27T12:01:48.952Z,29.6
2019-06-27T12:06:46.587Z,29.8
2019-06-27T12:11:44.187Z,30
2019-06-27T12:16:41.872Z,30.1
2019-06-27T12:21:38.994Z,30.3
2019-06-27T12:26:36.760Z,30.4
2019-06-27T12:31:33.851Z,30.5
2019-06-27T12:36:31.466Z,30.6
2019-06-27T12:41:28.966Z,30.7
2019-06-27T12:46:26.623Z,30.3
2019-06-27T12:51:24.348Z,30.3
2019-06-27T12:56:21.550Z,30.8
2019-06-27T13:01:18.777Z,30.9
2019-06-27T13:06:16.531Z,30.5
2019-06-27T13:11:14.294Z,31.6
2019-06-27T13:16:11.878Z,33
2019-06-27T13:21:10.238Z,32.9
2019-06-27T13:26:07.740Z,33
2019-06-27T13:31:05.009Z,32.7
2019-06-27T13:36:02.107Z,32.2
2019-06-27T13:41:02.117Z,31.7
2019-06-27T13:45:56.805Z,31.5
2019-06-27T13:50:57.441Z,31.9
2019-06-27T13:55:51.628Z,31.8
2019-06-27T14:00:48.828Z,31.7
2019-06-27T14:05:45.885Z,30.9
2019-06-27T14:10:43.393Z,31.1
2019-06-27T14:15:40.350Z,30.5
2019-06-27T14:20:37.216Z,31
2019-06-27T14:25:34.341Z,31.5
2019-06-27T14:30:31.723Z,31.4
2019-06-27T14:35:29.566Z,30.9
2019-06-27T14:40:26.937Z,31.3
2019-06-27T14:45:23.967Z,31.3
2019-06-27T14:50:21.243Z,31.3
2019-06-27T14:55:18.497Z,30.8
2019-06-27T15:00:15.794Z,30.5
2019-06-27T15:05:12.778Z,30.6
2019-06-27T15:10:09.905Z,30.6
2019-06-27T15:15:07.059Z,31.1
2019-06-27T15:20:04.687Z,30.7
2019-06-27T15:25:02.241Z,30.7
2019-06-27T15:29:59.892Z,30.5
2019-06-27T15:34:56.943Z,30.6
2019-06-27T15:39:53.913Z,31
2019-06-27T15:44:51.153Z,31
2019-06-27T15:49:48.342Z,30.6
2019-06-27T15:54:45.766Z,31.1
2019-06-27T15:59:43.363Z,30.4
2019-06-27T16:04:40.407Z,30.9
2019-06-27T16:09:37.050Z,31
2019-06-27T16:14:34.185Z,30.8
2019-06-27T16:19:31.455Z,30.8
2019-06-27T16:24:29.173Z,30.3
2019-06-27T16:29:26.152Z,30.1
2019-06-27T16:34:23.169Z,30.5
2019-06-27T16:39:20.787Z,30.2
2019-06-27T16:44:17.946Z,30.3
2019-06-27T16:49:14.969Z,30.3
2019-06-27T16:54:12.081Z,30.2
2019-06-27T16:59:09.338Z,30.1
2019-06-27T17:04:07.041Z,29.5
2019-06-27T17:09:04.557Z,29.9
2019-06-27T17:14:02.209Z,29.8
2019-06-27T17:18:59.811Z,29.3
2019-06-27T17:23:56.795Z,29.6
2019-06-27T17:28:54.030Z,29.6
2019-06-27T17:33:51.296Z,29.5
2019-06-27T17:38:48.932Z,29.4
2019-06-27T17:43:46.002Z,29.3
2019-06-27T17:48:43.723Z,29.2
2019-06-27T17:53:41.312Z,29.2
2019-06-27T17:58:38.780Z,28.6
2019-06-27T18:03:35.702Z,29
2019-06-27T18:08:33.254Z,28.9
2019-06-27T18:13:30.383Z,28.8
2019-06-27T18:18:27.811Z,28.7
2019-06-27T18:23:25.443Z,28.6
2019-06-27T18:28:23.962Z,28.6
2019-06-27T18:33:21.688Z,28.5
2019-06-27T18:38:19.316Z,28.4
2019-06-27T18:43:16.288Z,28.4
2019-06-27T18:48:13.967Z,28.3
2019-06-27T18:53:11.078Z,28.3
2019-06-27T18:58:08.439Z,28.2
2019-06-27T19:03:05.566Z,28.1
2019-06-27T19:08:02.854Z,28.1
2019-06-27T19:13:00.094Z,28
2019-06-27T19:17:57.922Z,28
2019-06-27T19:22:55.080Z,27.9
2019-06-27T19:27:52.152Z,27.5
2019-06-27T19:32:49.055Z,27.7
2019-06-27T19:38:00.717Z,27.7
2019-06-27T19:42:43.294Z,27.7
2019-06-27T19:47:41.093Z,27.6
2019-06-27T19:52:38.620Z,27.1
2019-06-27T19:57:35.938Z,27.5
2019-06-27T20:02:33.259Z,27.4
2019-06-27T20:07:30.384Z,27.4
2019-06-27T20:12:27.487Z,27.3
2019-06-27T20:17:24.779Z,27.3
2019-06-27T20:22:21.842Z,27.2
2019-06-27T20:27:19.097Z,27.2
2019-06-27T20:32:16.354Z,27.1
2019-06-27T20:37:13.989Z,27.1
2019-06-27T20:42:11.753Z,27
2019-06-27T20:47:09.049Z,27
2019-06-27T20:52:06.592Z,26.9
2019-06-27T20:57:03.685Z,26.7
2019-06-27T21:02:01.197Z,26.8
2019-06-27T21:06:58.359Z,26.8
2019-06-27T21:11:55.657Z,26.7
2019-06-27T21:16:52.887Z,26.6
2019-06-27T21:21:50.020Z,26.6
2019-06-27T21:26:47.403Z,26.5
2019-06-27T21:31:44.753Z,26.5
2019-06-27T21:36:41.771Z,26.4
2019-06-27T21:41:39.065Z,26.4
2019-06-27T21:46:36.190Z,26.3
2019-06-27T21:51:33.535Z,26.2
2019-06-27T21:56:31.174Z,26.1
2019-06-27T22:01:28.368Z,26.1
2019-06-27T22:06:25.949Z,26.1
2019-06-27T22:11:22.991Z,25.9
2019-06-27T22:16:20.223Z,26
2019-06-27T22:21:17.425Z,25.9
2019-06-27T22:26:14.457Z,25.8
2019-06-27T22:31:11.698Z,25.8
2019-06-27T22:36:08.985Z,25.8
2019-06-27T22:41:06.290Z,25.8
2019-06-27T22:46:03.845Z,25.3
2019-06-27T22:51:01.452Z,25.8
2019-06-27T22:55:58.371Z,25.5
2019-06-27T23:00:56.111Z,25.3
2019-06-27T23:05:52.648Z,25.7
2019-06-27T23:10:50.068Z,25.6
2019-06-27T23:15:47.618Z,25.6
2019-06-27T23:20:44.875Z,25.2
2019-06-27T23:25:42.053Z,25.6
2019-06-27T23:30:39.723Z,25.5
2019-06-27T23:35:37.161Z,25
2019-06-27T23:40:34.218Z,24.3
2019-06-27T23:45:31.045Z,25.3
2019-06-27T23:50:28.451Z,25.3
2019-06-27T23:55:25.735Z,25.3
